This is the latest recevied weather packets stored in our database for station/object KB9ZI. If no packets are shown the sender has not sent any weather packets the latest 10 day(s).
| Time | Temp. | Humidity | Pressure | Rain* | Wind** | Luminosity | Snow |
|---|---|---|---|---|---|---|---|
| 1777928734 | 16.67° C | 44% | 1001 hPa | 0 mm | - | - | - |
| 1777928651 | 16.11° C | 46% | 1001.3 hPa | 0 mm | - | - | - |
| 1777928613 | 16.11° C | 46% | 1001.2 hPa | 0 mm | - | - | - |
| 1777928369 | 16.11° C | 43% | 1001.2 hPa | 0 mm | - | - | - |
| 1777928251 | 16.67° C | 43% | 1001.1 hPa | 0 mm | - | - | - |
| 1777928103 | 16.67° C | 43% | 1001.2 hPa | 0 mm | - | - | - |
| 1777928007 | 16.67° C | 41% | 1001.2 hPa | 0 mm | - | - | - |
| 1777927970 | 16.67° C | 43% | 1001.2 hPa | 0 mm | - | - | - |
| 1777927730 | 16.67° C | 45% | 1001.3 hPa | 0 mm | - | - | - |
| 1777927610 | 16.67° C | 43% | 1001.2 hPa | 0 mm | - | - | - |
| 1777927548 | 16.67° C | 43% | 1001.2 hPa | 0 mm | - | - | - |
| 1777927400 | 16.67° C | 43% | 1001.2 hPa | 0 mm | - | - | - |
| 1777927368 | 15.56° C | 46% | 1001.1 hPa | 0 mm | - | - | - |
| 1777927136 | 15.56° C | 46% | 1001 hPa | 0 mm | - | - | - |
| 1777927011 | 15.56° C | 46% | 1001 hPa | 0 mm | - | - | - |
| 1777926893 | 16.11° C | 46% | 1001.1 hPa | 0 mm | - | - | - |
| 1777926774 | 16.11° C | 46% | 1001.1 hPa | 0 mm | - | - | - |
| 1777926639 | 16.11° C | 46% | 1001 hPa | 0 mm | - | - | - |
| 1777926513 | 16.11° C | 46% | 1001.1 hPa | 0 mm | - | - | - |
| 1777926394 | 16.11° C | 46% | 1001 hPa | 0 mm | - | - | - |
| 1777926272 | 15.56° C | 46% | 1001.1 hPa | 0 mm | - | - | - |
| 1777926220 | 16.11° C | 42% | 1001.1 hPa | 0 mm | - | - | - |
| 1777926181 | 15.56° C | 43% | 1001 hPa | 0 mm | - | - | - |
| 1777925914 | - | - | 1001 hPa | 0 mm | - | - | - |
| 1777925792 | - | - | 1001 hPa | 0 mm | - | - | - |
* Rain latest hour (hover to see other rain measurements)
** Current wind speed in m/s (hover to see current wind gust speed)